This is the latest recevied weather packets stored in our database for station/object N4DBJ. If no packets are shown the sender has not sent any weather packets the latest 10 day(s).
| Time | Temp. | Humidity | Pressure | Rain* | Wind** | Luminosity | Snow |
|---|---|---|---|---|---|---|---|
| 1777408739 | 27.78° C | 71% | 1011.1 hPa | 0 mm | - | 167 W/m² | - |
| 1777408430 | 27.78° C | 73% | 1011.1 hPa | 0 mm | - | 641 W/m² | - |
| 1777408125 | 27.78° C | 72% | 1011.1 hPa | 0 mm | - | 594 W/m² | - |
| 1777407820 | 27.78° C | 74% | 1011.4 hPa | 0 mm | - | 688 W/m² | - |
| 1777407518 | 27.78° C | 73% | 1011.3 hPa | 0 mm | - | 719 W/m² | - |
| 1777407217 | 26.67° C | 74% | 1011.4 hPa | 0 mm | - | 566 W/m² | - |
| 1777406912 | 27.22° C | 72% | 1012 hPa | 0 mm | - | 307 W/m² | - |
| 1777406607 | 26.67° C | 74% | 1012 hPa | 0 mm | - | 618 W/m² | - |
| 1777406303 | 26.67° C | 73% | 1012.4 hPa | 0 mm | - | 399 W/m² | - |
| 1777406002 | 26.67° C | 74% | 1012.5 hPa | 0 mm | - | 525 W/m² | - |
| 1777405699 | 26.11° C | 76% | 1012.5 hPa | 0 mm | - | 678 W/m² | - |
| 1777405396 | 25.56° C | 79% | 1012.6 hPa | 0 mm | - | 631 W/m² | - |
| 1777405093 | 25.56° C | 76% | 1012.7 hPa | 0 mm | - | 230 W/m² | - |
| 1777404786 | 26.11° C | 75% | 1013 hPa | 0 mm | - | 259 W/m² | - |
| 1777404483 | 26.67° C | 74% | 1012.6 hPa | 0 mm | - | 269 W/m² | - |
| 1777404179 | 26.11° C | 77% | 1012.7 hPa | 0 mm | - | 280 W/m² | - |
| 1777403875 | 25.56° C | 77% | 1012.8 hPa | 0 mm | - | 268 W/m² | - |
| 1777403570 | 25.56° C | 77% | 1012.8 hPa | 0 mm | - | 268 W/m² | - |
| 1777403270 | 25.56° C | 81% | 1012.9 hPa | 0 mm | - | 572 W/m² | - |
| 1777402970 | 25.56° C | 77% | 1013 hPa | 0 mm | - | 180 W/m² | - |
| 1777402665 | 26.11° C | 76% | 1012.9 hPa | 0 mm | - | 298 W/m² | - |
| 1777402364 | 26.11° C | 77% | 1013.2 hPa | 0 mm | - | 744 W/m² | - |
| 1777402063 | 25.56° C | 77% | 1013.3 hPa | 0 mm | - | 696 W/m² | - |
| 1777401759 | 25.56° C | 79% | 1013.1 hPa | 0 mm | - | 459 W/m² | - |
| 1777401454 | 25.56° C | 82% | 1013.4 hPa | 0 mm | - | 834 W/m² | - |
* Rain latest hour (hover to see other rain measurements)
** Current wind speed in m/s (hover to see current wind gust speed)